Time;durP1;ratioP1;P1;durP2;ratioP2;P2;SDS_P1;SDS_P2;PMS_P1;PMS_P2;Temp;Humidity;BMP_temperature;BMP_pressure;BME280_temperature;BME280_humidity;BME280_pressure;Samples;Min_cycle;Max_cycle;Signal;HPM_P1;HPM_P2
2023/09/19 00:00:25;;;;;;;0.95;0.50;;;;;;;13.32;100.00;92828.31;2090365;28;20110;-82
2023/09/19 00:01:27;;;;;;;1.05;0.50;;;;;;;13.34;100.00;92833.97;2082898;28;20112;-86
2023/09/19 00:02:29;;;;;;;0.57;0.40;;;;;;;13.36;100.00;92836.97;2082939;28;20025;-84
2023/09/19 00:03:31;;;;;;;0.90;0.52;;;;;;;13.24;100.00;92835.84;2090769;28;20032;-83
2023/09/19 00:04:32;;;;;;;1.35;0.70;;;;;;;13.24;100.00;92835.84;2090702;28;20028;-84
2023/09/19 00:05:35;;;;;;;0.35;0.35;;;;;;;13.34;100.00;92836.66;2098985;28;20024;-83
2023/09/19 00:06:37;;;;;;;0.70;0.55;;;;;;;13.33;100.00;92837.84;2099031;28;20066;-85
2023/09/19 00:07:38;;;;;;;0.82;0.80;;;;;;;13.24;100.00;92835.13;2099096;28;20115;-80
2023/09/19 00:08:39;;;;;;;0.50;0.50;;;;;;;13.33;100.00;92843.97;2099044;28;20017;-80
2023/09/19 00:09:40;;;;;;;1.48;0.50;;;;;;;13.35;100.00;92846.22;2106862;28;20502;-83
2023/09/19 00:13:12;;;;;;;0.55;0.50;;;;;;;13.49;100.00;92842.25;2106622;28;20028;-82
2023/09/19 00:14:13;;;;;;;1.15;0.57;;;;;;;13.39;100.00;92843.38;2111770;28;20377;-83
2023/09/19 00:15:17;;;;;;;0.75;0.70;;;;;;;13.52;100.00;92844.03;2098499;28;20028;-81
2023/09/19 00:16:19;;;;;;;0.82;0.82;;;;;;;13.64;100.00;92848.56;2091116;28;20056;-81
2023/09/19 00:17:20;;;;;;;1.75;0.50;;;;;;;13.68;100.00;92851.13;2106977;28;20046;-82
2023/09/19 00:18:21;;;;;;;0.60;0.40;;;;;;;13.58;100.00;92848.41;2098441;28;20024;-82
2023/09/19 00:19:23;;;;;;;0.68;0.60;;;;;;;13.63;100.00;92847.09;2090518;28;20028;-83
2023/09/19 00:20:24;;;;;;;1.38;0.50;;;;;;;13.60;100.00;92842.59;2090553;28;20025;-80
2023/09/19 00:21:26;;;;;;;0.50;0.40;;;;;;;13.56;100.00;92841.97;2082276;28;20022;-83
2023/09/19 00:22:27;;;;;;;0.50;0.50;;;;;;;13.53;100.00;92838.25;2082472;28;20021;-81
2023/09/19 00:23:28;;;;;;;1.65;0.60;;;;;;;13.42;100.00;92842.50;2090624;28;20056;-83
2023/09/19 00:24:29;;;;;;;0.45;0.40;;;;;;;13.43;100.00;92844.75;2107182;28;20031;-84
2023/09/19 00:25:32;;;;;;;0.60;0.60;;;;;;;13.46;100.00;92840.44;2098772;28;20074;-81
2023/09/19 00:26:34;;;;;;;0.63;0.63;;;;;;;13.35;100.00;92846.97;2082895;28;20447;-83
2023/09/19 00:27:35;;;;;;;0.80;0.60;;;;;;;13.21;100.00;92854.75;2082623;28;20021;-82
2023/09/19 00:28:36;;;;;;;1.48;0.50;;;;;;;13.28;100.00;92846.47;2082448;28;20116;-82
2023/09/19 00:29:37;;;;;;;0.50;0.50;;;;;;;13.31;100.00;92846.34;2082290;28;20188;-82
2023/09/19 00:30:39;;;;;;;1.48;0.50;;;;;;;13.38;100.00;92842.63;2082247;28;20061;-84
2023/09/19 00:31:40;;;;;;;1.60;0.40;;;;;;;13.37;100.00;92849.19;2099040;28;20024;-82
2023/09/19 00:32:42;;;;;;;0.60;0.50;;;;;;;13.22;100.00;92843.63;2098546;28;20021;-81
2023/09/19 00:33:43;;;;;;;1.38;0.40;;;;;;;13.28;100.00;92844.53;2099157;28;20103;-81
2023/09/19 00:34:44;;;;;;;1.88;0.80;;;;;;;13.31;100.00;92848.28;2106770;28;20465;-85
2023/09/19 00:35:52;;;;;;;1.95;0.55;;;;;;;13.29;100.00;92845.28;2098355;28;20406;-81
2023/09/19 00:36:53;;;;;;;1.60;0.80;;;;;;;13.26;100.00;92854.97;2091110;28;20058;-80
2023/09/19 00:37:55;;;;;;;0.68;0.40;;;;;;;13.20;100.00;92848.63;2090187;28;20485;-83
2023/09/19 00:38:56;;;;;;;1.15;0.60;;;;;;;13.34;100.00;92850.06;2098752;28;20025;-82
2023/09/19 00:39:57;;;;;;;1.13;0.52;;;;;;;13.34;100.00;92850.84;2089411;28;20470;-83
2023/09/19 00:40:59;;;;;;;1.73;0.90;;;;;;;13.26;100.00;92859.59;2098364;28;20021;-79
2023/09/19 00:42:04;;;;;;;0.60;0.60;;;;;;;13.23;100.00;92863.16;2098523;28;20375;-84
2023/09/19 00:43:05;;;;;;;1.42;0.70;;;;;;;13.28;100.00;92860.63;2083062;28;20025;-82
2023/09/19 00:44:06;;;;;;;1.00;0.70;;;;;;;13.33;100.00;92856.63;2082115;28;20029;-82
2023/09/19 00:45:11;;;;;;;1.85;0.40;;;;;;;13.41;100.00;92857.88;2082261;28;20057;-82
2023/09/19 00:46:12;;;;;;;1.83;0.60;;;;;;;13.40;100.00;92856.38;2083019;28;20048;-82
2023/09/19 00:47:17;;;;;;;1.58;0.73;;;;;;;13.43;100.00;92854.75;2090241;28;20053;-84
2023/09/19 00:48:19;;;;;;;0.98;0.70;;;;;;;13.34;100.00;92852.75;2099107;28;20054;-82
2023/09/19 00:49:22;;;;;;;0.57;0.50;;;;;;;13.35;100.00;92843.53;2098636;28;20020;-81
2023/09/19 00:50:26;;;;;;;1.20;0.60;;;;;;;13.46;100.00;92849.25;2098744;28;20039;-83
2023/09/19 00:51:27;;;;;;;0.68;0.50;;;;;;;13.48;100.00;92851.50;2106512;28;20024;-80
2023/09/19 00:52:28;;;;;;;0.60;0.50;;;;;;;13.51;100.00;92850.59;2098394;28;20524;-81
2023/09/19 00:53:31;;;;;;;1.40;0.47;;;;;;;13.47;100.00;92855.34;2090116;28;20028;-83
2023/09/19 00:54:33;;;;;;;1.02;0.60;;;;;;;13.47;100.00;92850.00;2098534;28;20504;-83
2023/09/19 00:55:37;;;;;;;1.17;0.70;;;;;;;13.45;100.00;92855.06;2114788;28;20020;-84
2023/09/19 00:56:40;;;;;;;1.35;0.75;;;;;;;13.48;100.00;92859.56;2098092;28;20405;-81
2023/09/19 00:57:42;;;;;;;0.85;0.55;;;;;;;13.32;100.00;92855.16;2098618;28;20025;-84
2023/09/19 00:58:42;;;;;;;1.35;0.55;;;;;;;13.25;100.00;92853.44;2107266;28;20077;-81
2023/09/19 00:59:43;;;;;;;0.68;0.50;;;;;;;13.37;100.00;92856.50;2095635;28;20034;-81
2023/09/19 01:00:45;;;;;;;0.57;0.57;;;;;;;13.39;100.00;92854.91;2081910;28;20049;-84
2023/09/19 01:01:52;;;;;;;1.95;0.47;;;;;;;13.35;100.00;92860.38;2082063;28;20017;-82
2023/09/19 01:02:54;;;;;;;0.80;0.70;;;;;;;13.34;100.00;92861.59;2090960;28;20402;-82
2023/09/19 01:03:55;;;;;;;0.77;0.60;;;;;;;13.27;100.00;92859.16;2098024;28;20024;-81
2023/09/19 01:04:56;;;;;;;0.68;0.55;;;;;;;13.27;100.00;92853.78;2090345;28;20029;-82
2023/09/19 01:05:57;;;;;;;1.15;0.60;;;;;;;13.19;100.00;92863.25;2081971;28;20429;-82
2023/09/19 01:06:58;;;;;;;1.13;0.50;;;;;;;13.25;100.00;92856.13;2081483;28;20040;-82
2023/09/19 01:07:59;;;;;;;1.00;0.75;;;;;;;13.27;100.00;92853.78;2098518;28;20020;-82
2023/09/19 01:09:00;;;;;;;0.70;0.60;;;;;;;13.21;100.00;92854.75;2098337;28;20016;-80
2023/09/19 01:10:05;;;;;;;0.60;0.60;;;;;;;13.23;100.00;92850.47;2097362;28;20078;-82
2023/09/19 01:11:14;;;;;;;0.80;0.50;;;;;;;13.20;100.00;92845.19;2090437;28;20059;-81
2023/09/19 01:12:20;;;;;;;1.30;0.63;;;;;;;13.12;100.00;92850.06;2092321;28;20025;-84
2023/09/19 01:14:02;;;;;;;4.55;0.50;;;;;;;13.10;100.00;92850.50;2098015;28;20427;-83
2023/09/19 01:15:34;;;;;;;0.65;0.47;;;;;;;13.19;100.00;92852.50;2054573;28;20066;-80
2023/09/19 01:16:58;;;;;;;1.63;0.68;;;;;;;13.05;100.00;92858.38;2098198;28;20034;-81
2023/09/19 01:18:16;;;;;;;2.47;0.60;;;;;;;13.01;100.00;92863.88;2101391;28;20024;-81
2023/09/19 01:19:23;;;;;;;1.10;0.65;;;;;;;12.99;100.00;92857.44;2100781;28;20024;-82
2023/09/19 01:20:39;;;;;;;1.38;0.50;;;;;;;13.07;100.00;92864.06;2091075;28;20370;-83
2023/09/19 01:22:21;;;;;;;1.38;0.50;;;;;;;13.04;100.00;92867.63;2093935;28;20094;-82
2023/09/19 01:23:33;;;;;;;0.60;0.50;;;;;;;12.99;100.00;92865.47;2103982;28;20024;-80
2023/09/19 01:25:11;;;;;;;0.90;0.50;;;;;;;12.90;100.00;92865.41;2091423;28;20024;-81
2023/09/19 01:26:38;;;;;;;0.63;0.45;;;;;;;12.85;100.00;92870.16;2091748;28;20103;-82
2023/09/19 01:28:14;;;;;;;0.85;0.60;;;;;;;12.72;100.00;92871.38;2101857;28;20103;-82
2023/09/19 01:29:34;;;;;;;2.05;0.57;;;;;;;12.71;100.00;92862.59;2103102;28;20020;-80
2023/09/19 01:34:57;;;;;;;0.68;0.43;;;;;;;12.67;100.00;92878.06;2105467;28;20074;-80
2023/09/19 01:35:58;;;;;;;0.98;0.60;;;;;;;12.61;100.00;92866.41;2101810;28;20036;-84
2023/09/19 01:37:01;;;;;;;0.47;0.47;;;;;;;12.68;100.00;92866.16;2097989;28;20043;-81
2023/09/19 01:38:02;;;;;;;0.60;0.60;;;;;;;12.59;100.00;92874.84;2089884;28;20355;-82
2023/09/19 01:39:10;;;;;;;3.70;0.70;;;;;;;12.81;100.00;92874.16;2097920;28;20434;-83
2023/09/19 01:40:17;;;;;;;1.17;0.70;;;;;;;12.90;100.00;92878.84;2091304;28;20024;-84
2023/09/19 01:41:29;;;;;;;2.05;0.63;;;;;;;12.84;100.00;92873.28;2098687;28;20078;-81
2023/09/19 01:42:49;;;;;;;1.25;0.63;;;;;;;12.87;100.00;92880.47;2106343;28;20051;-82
2023/09/19 01:43:51;;;;;;;1.95;0.60;;;;;;;12.89;100.00;92880.78;2100530;28;20013;-82
2023/09/19 01:45:13;;;;;;;1.50;0.50;;;;;;;12.85;100.00;92872.09;2098090;28;20027;-82
2023/09/19 01:46:34;;;;;;;1.10;0.68;;;;;;;12.81;100.00;92874.88;2101070;28;20101;-81
2023/09/19 01:47:46;;;;;;;1.25;0.60;;;;;;;12.86;100.00;92878.94;2100751;28;20153;-80
2023/09/19 01:49:03;;;;;;;2.17;0.50;;;;;;;12.93;100.00;92875.28;2091309;28;20104;-84
2023/09/19 01:50:18;;;;;;;1.67;0.60;;;;;;;12.98;100.00;92877.41;2102660;28;20119;-83
2023/09/19 01:51:32;;;;;;;1.00;0.75;;;;;;;12.99;100.00;92871.59;2097932;28;20111;-83
2023/09/19 01:52:38;;;;;;;0.85;0.60;;;;;;;13.02;100.00;92884.16;2101847;28;20123;-83
2023/09/19 01:54:02;;;;;;;0.65;0.47;;;;;;;13.00;100.00;92875.78;2106394;28;20024;-84
2023/09/19 01:59:03;;;;;;;0.57;0.50;;;;;;;13.25;100.00;92887.59;2106087;28;20414;-82
2023/09/19 02:00:11;;;;;;;0.50;0.50;;;;;;;13.11;100.00;92878.09;2098871;28;20111;-80
2023/09/19 02:01:22;;;;;;;1.92;0.45;;;;;;;13.08;100.00;92882.41;2090710;28;20029;-82
2023/09/19 02:02:23;;;;;;;;;;;;;;;13.16;100.00;92888.25;2101044;28;20350;-85
2023/09/19 02:03:27;;;;;;;0.55;0.55;;;;;;;13.11;100.00;92880.78;2097990;28;19952;-83
2023/09/19 02:04:28;;;;;;;1.17;1.00;;;;;;;13.10;100.00;92884.66;2082222;28;20026;-82
2023/09/19 02:05:29;;;;;;;2.00;0.80;;;;;;;13.17;100.00;92889.78;2089738;28;20103;-80
2023/09/19 02:06:32;;;;;;;2.83;0.55;;;;;;;13.13;100.00;92885.72;2098054;28;20021;-83
2023/09/19 02:07:33;;;;;;;1.10;0.60;;;;;;;13.20;100.00;92888.13;2097822;28;20036;-85
2023/09/19 02:08:34;;;;;;;1.95;0.70;;;;;;;13.30;100.00;92889.72;2089434;28;20574;-82
2023/09/19 02:09:37;;;;;;;1.63;0.63;;;;;;;13.34;100.00;92891.13;2097471;28;20025;-81
2023/09/19 02:10:40;;;;;;;2.40;0.63;;;;;;;13.34;100.00;92885.75;2089905;28;20021;-84
2023/09/19 02:11:41;;;;;;;2.05;0.50;;;;;;;13.40;100.00;92896.66;2098499;28;20459;-82
2023/09/19 02:12:43;;;;;;;1.13;0.52;;;;;;;13.40;100.00;92890.53;2097887;28;20017;-83
2023/09/19 02:13:44;;;;;;;1.13;0.73;;;;;;;13.34;100.00;92884.97;2097883;28;20021;-84
2023/09/19 02:14:44;;;;;;;1.05;0.60;;;;;;;13.39;100.00;92889.78;2089501;28;20024;-82
2023/09/19 02:15:49;;;;;;;1.10;0.60;;;;;;;13.45;100.00;92888.03;2097881;28;20024;-82
2023/09/19 02:16:50;;;;;;;2.53;0.70;;;;;;;13.52;100.00;92885.09;2106830;28;20036;-85
2023/09/19 02:17:51;;;;;;;0.73;0.60;;;;;;;13.48;100.00;92889.09;2098035;28;20107;-80
2023/09/19 02:18:52;;;;;;;0.90;0.60;;;;;;;13.41;100.00;92897.41;2089552;28;20454;-82
2023/09/19 02:19:54;;;;;;;1.90;0.70;;;;;;;13.43;100.00;92882.34;2106290;28;20097;-80
2023/09/19 02:20:56;;;;;;;3.25;0.68;;;;;;;13.41;100.00;92898.16;2106224;28;20028;-84
2023/09/19 02:23:10;;;;;;;;;;;;;;;13.19;100.00;92892.03;2148555;27;20640;-78
2023/09/19 02:24:12;;;;;;;0.68;0.50;;;;;;;13.20;100.00;92890.81;2130088;27;20026;-78
2023/09/19 02:25:13;;;;;;;1.17;0.63;;;;;;;13.22;100.00;92889.25;2130697;27;20018;-77
2023/09/19 02:26:14;;;;;;;1.63;0.70;;;;;;;13.22;100.00;92896.53;2148243;27;20017;-78
2023/09/19 02:27:16;;;;;;;1.35;0.65;;;;;;;13.18;100.00;92890.53;2148301;27;20025;-78
2023/09/19 02:28:17;;;;;;;0.98;0.60;;;;;;;13.16;100.00;92895.56;2148085;27;20014;-78
2023/09/19 02:29:17;;;;;;;3.20;0.80;;;;;;;13.29;100.00;92891.66;2148156;27;20022;-78
2023/09/19 02:30:20;;;;;;;0.60;0.45;;;;;;;13.24;100.00;92891.47;2138881;27;20014;-78
2023/09/19 02:31:21;;;;;;;1.02;0.50;;;;;;;13.26;100.00;92892.56;2139115;27;20034;-78
2023/09/19 02:32:23;;;;;;;0.95;0.60;;;;;;;13.21;100.00;92898.44;2138716;27;20042;-78
2023/09/19 02:33:24;;;;;;;0.60;0.45;;;;;;;13.20;100.00;92891.56;2121696;27;20020;-78
2023/09/19 02:34:25;;;;;;;0.60;0.57;;;;;;;13.19;100.00;92892.03;2130290;27;20019;-78
2023/09/19 02:35:27;;;;;;;2.15;0.80;;;;;;;13.18;100.00;92890.53;2138841;27;20459;-78
2023/09/19 02:36:30;;;;;;;3.88;0.73;;;;;;;13.14;100.00;92890.66;2138834;27;20037;-78
2023/09/19 02:37:32;;;;;;;1.80;0.70;;;;;;;13.21;100.00;92898.44;2121861;27;20023;-78
2023/09/19 02:38:33;;;;;;;1.17;0.70;;;;;;;13.23;100.00;92896.09;2130599;27;20023;-78
2023/09/19 02:39:35;;;;;;;0.50;0.50;;;;;;;13.10;100.00;92887.34;2138679;27;20074;-78
2023/09/19 02:40:36;;;;;;;1.73;0.68;;;;;;;13.22;100.00;92896.53;2130077;27;20015;-78
2023/09/19 02:41:37;;;;;;;0.60;0.55;;;;;;;13.35;100.00;92895.28;2129664;27;20376;-78
2023/09/19 02:42:38;;;;;;;1.00;0.47;;;;;;;13.35;100.00;92895.28;2137981;27;20065;-78
2023/09/19 02:43:39;;;;;;;0.75;0.60;;;;;;;13.34;100.00;92896.47;2138001;27;20109;-81
2023/09/19 02:44:40;;;;;;;1.15;0.57;;;;;;;13.38;100.00;92898.28;2129434;27;20037;-79
2023/09/19 02:45:41;;;;;;;1.00;0.47;;;;;;;13.59;100.00;92895.56;2138042;27;20018;-79
2023/09/19 02:46:42;;;;;;;0.85;0.60;;;;;;;13.40;100.00;92890.53;2138256;27;20076;-79
2023/09/19 02:47:44;;;;;;;0.90;0.40;;;;;;;13.33;100.00;92891.53;2129453;27;20479;-79
2023/09/19 02:48:45;;;;;;;1.15;0.50;;;;;;;13.32;100.00;92898.84;2121342;27;20027;-79
2023/09/19 02:49:46;;;;;;;1.00;0.50;;;;;;;13.49;100.00;92890.59;2129935;27;20396;-79
2023/09/19 02:50:50;;;;;;;1.05;0.60;;;;;;;13.32;100.00;92898.09;2138710;27;20028;-79
2023/09/19 02:51:51;;;;;;;1.90;0.55;;;;;;;13.23;100.00;92895.34;2138647;27;20354;-79
2023/09/19 02:52:52;;;;;;;0.73;0.40;;;;;;;13.29;100.00;92888.22;2130078;27;20083;-79
2023/09/19 02:53:54;;;;;;;1.13;0.50;;;;;;;13.21;100.00;92893.06;2129984;27;20028;-80
2023/09/19 02:54:55;;;;;;;2.63;0.60;;;;;;;13.28;100.00;92890.16;2130078;27;20054;-79
2023/09/19 02:55:56;;;;;;;1.20;0.50;;;;;;;13.26;100.00;92891.81;2130060;27;20629;-79
2023/09/19 02:56:58;;;;;;;3.28;0.63;;;;;;;13.19;100.00;92892.03;2121562;27;20166;-79
2023/09/19 02:58:01;;;;;;;0.70;0.70;;;;;;;13.20;100.00;92893.50;2130070;27;20038;-79
2023/09/19 02:59:02;;;;;;;2.67;0.70;;;;;;;13.16;100.00;92892.88;2138628;27;20072;-79
2023/09/19 03:00:04;;;;;;;2.95;0.60;;;;;;;13.26;100.00;92892.56;2138955;27;20019;-80
2023/09/19 03:01:12;;;;;;;1.23;0.70;;;;;;;13.28;100.00;92892.09;2147919;27;20485;-79
2023/09/19 03:02:13;;;;;;;1.70;0.68;;;;;;;13.05;100.00;92888.66;2138506;27;20369;-79
2023/09/19 03:03:15;;;;;;;1.35;0.60;;;;;;;13.05;100.00;92887.91;2121527;27;20057;-79
2023/09/19 03:04:19;;;;;;;1.88;0.57;;;;;;;13.25;100.00;92890.28;2121529;27;20020;-79
2023/09/19 03:05:21;;;;;;;2.25;0.70;;;;;;;13.11;100.00;92886.88;2122135;27;20023;-79
2023/09/19 03:06:23;;;;;;;1.27;0.52;;;;;;;13.09;100.00;92886.59;2138743;27;20383;-80
2023/09/19 03:07:25;;;;;;;0.60;0.50;;;;;;;13.02;100.00;92886.81;2147921;27;20063;-79
2023/09/19 03:08:26;;;;;;;2.65;0.70;;;;;;;12.97;100.00;92887.38;2138567;27;20109;-79
2023/09/19 03:09:27;;;;;;;2.20;0.63;;;;;;;12.85;100.00;92880.88;2138536;27;20391;-79
2023/09/19 03:10:29;;;;;;;0.90;0.50;;;;;;;12.84;100.00;92892.06;2138607;27;20098;-79
2023/09/19 03:11:31;;;;;;;0.88;0.50;;;;;;;12.84;100.00;92884.00;2130548;27;20026;-79
2023/09/19 03:12:33;;;;;;;1.50;0.60;;;;;;;12.79;100.00;92895.31;2139020;27;20033;-79
2023/09/19 03:13:36;;;;;;;2.00;0.70;;;;;;;12.88;100.00;92894.63;2147783;27;20029;-79
2023/09/19 03:14:37;;;;;;;0.73;0.70;;;;;;;12.83;100.00;92895.94;2138661;27;20033;-79
2023/09/19 03:15:43;;;;;;;0.60;0.60;;;;;;;12.84;100.00;92900.09;2129951;27;20503;-79
2023/09/19 03:16:45;;;;;;;1.98;0.93;;;;;;;12.87;100.00;92893.88;2130732;27;20022;-79
2023/09/19 03:17:47;;;;;;;0.60;0.43;;;;;;;12.87;100.00;92899.25;2138606;27;20030;-79
2023/09/19 03:18:48;;;;;;;1.67;0.60;;;;;;;12.89;100.00;92901.47;2129798;27;20088;-79
2023/09/19 03:19:50;;;;;;;2.05;0.63;;;;;;;13.13;100.00;92904.50;2121285;27;20066;-79
2023/09/19 03:20:54;;;;;;;1.70;0.60;;;;;;;13.24;100.00;92911.00;2121196;27;20104;-79
2023/09/19 03:21:57;;;;;;;3.03;0.70;;;;;;;13.14;100.00;92909.44;2130386;27;20019;-79
2023/09/19 03:22:59;;;;;;;4.32;0.82;;;;;;;13.08;100.00;92911.94;2129530;27;20123;-80
2023/09/19 03:24:00;;;;;;;1.20;0.50;;;;;;;13.02;100.00;92910.22;2121487;27;20026;-79
2023/09/19 03:25:00;;;;;;;0.98;0.60;;;;;;;13.07;100.00;92913.09;2129797;27;20019;-79
2023/09/19 03:26:02;;;;;;;1.65;0.55;;;;;;;13.05;100.00;92904.75;2130396;27;20428;-79
2023/09/19 03:27:03;;;;;;;1.05;0.50;;;;;;;13.03;100.00;92912.47;2138269;27;20033;-79
2023/09/19 03:28:07;;;;;;;3.53;0.70;;;;;;;12.99;100.00;92911.09;2129724;27;20019;-79
2023/09/19 03:29:09;;;;;;;2.63;0.60;;;;;;;13.04;100.00;92913.25;2121660;27;20077;-79
2023/09/19 03:30:13;;;;;;;1.05;0.70;;;;;;;13.06;100.00;92911.59;2121444;27;20016;-80
2023/09/19 03:31:14;;;;;;;0.85;0.40;;;;;;;13.05;100.00;92901.31;2121486;27;20055;-79
2023/09/19 03:32:15;;;;;;;0.57;0.57;;;;;;;13.08;100.00;92901.19;2121365;27;20053;-79
2023/09/19 03:33:16;;;;;;;0.95;0.63;;;;;;;13.07;100.00;92905.03;2121323;28;20015;-79
2023/09/19 03:34:17;;;;;;;0.88;0.50;;;;;;;13.13;100.00;92907.94;2108653;28;20461;-79
2023/09/19 03:35:18;;;;;;;2.40;0.50;;;;;;;13.22;100.00;92910.72;2107039;28;20027;-79
2023/09/19 03:36:19;;;;;;;0.85;0.68;;;;;;;13.18;100.00;92906.63;2107062;28;20043;-79
2023/09/19 03:37:20;;;;;;;1.17;0.63;;;;;;;13.18;100.00;92910.06;2107186;28;20027;-79
2023/09/19 03:38:21;;;;;;;0.50;0.40;;;;;;;13.21;100.00;92903.06;2115503;28;20023;-79
2023/09/19 03:39:22;;;;;;;1.05;0.52;;;;;;;13.15;100.00;92900.19;2115580;28;20059;-79
2023/09/19 03:40:25;;;;;;;0.50;0.50;;;;;;;13.17;100.00;92905.09;2123975;27;20019;-79
2023/09/19 03:41:26;;;;;;;3.63;1.20;;;;;;;13.25;100.00;92904.44;2124531;27;20026;-79
2023/09/19 03:42:27;;;;;;;3.55;0.57;;;;;;;13.16;100.00;92903.63;2124707;27;20031;-79
2023/09/19 03:43:28;;;;;;;1.10;1.00;;;;;;;13.18;100.00;92902.00;2115410;28;20047;-79
2023/09/19 03:44:30;;;;;;;0.70;0.47;;;;;;;13.18;100.00;92903.94;2107087;28;20047;-79
2023/09/19 03:45:31;;;;;;;1.05;1.05;;;;;;;13.19;100.00;92898.13;2123986;27;20107;-79
2023/09/19 03:46:32;;;;;;;1.38;0.50;;;;;;;13.21;100.00;92903.78;2124060;27;20382;-79
2023/09/19 03:47:33;;;;;;;3.58;0.50;;;;;;;13.26;100.00;92905.22;2124011;27;20102;-79
2023/09/19 03:48:34;;;;;;;1.67;0.57;;;;;;;13.16;100.00;92909.72;2115260;28;20377;-79
2023/09/19 03:49:35;;;;;;;0.73;0.52;;;;;;;13.20;100.00;92909.63;2115476;28;20027;-79
2023/09/19 03:50:36;;;;;;;3.72;0.60;;;;;;;13.25;100.00;92906.38;2123944;27;20075;-79
2023/09/19 03:51:37;;;;;;;0.82;0.60;;;;;;;13.18;100.00;92909.31;2123876;27;20027;-79
2023/09/19 03:52:47;;;;;;;0.65;0.57;;;;;;;13.21;100.00;92903.06;2115313;28;20023;-79
2023/09/19 03:53:51;;;;;;;0.57;0.40;;;;;;;13.21;100.00;92905.72;2108841;28;20032;-79
2023/09/19 03:54:52;;;;;;;0.40;0.40;;;;;;;13.23;100.00;92900.72;2115508;28;20099;-79
2023/09/19 03:55:55;;;;;;;0.60;0.60;;;;;;;13.13;100.00;92904.50;2115191;28;20028;-79
2023/09/19 03:56:56;;;;;;;0.70;0.40;;;;;;;13.21;100.00;92895.00;2107160;28;20031;-79
2023/09/19 03:57:57;;;;;;;0.50;0.40;;;;;;;13.10;100.00;92903.44;2098492;28;20017;-80
2023/09/19 03:58:58;;;;;;;0.90;0.60;;;;;;;13.11;100.00;92902.25;2107039;28;20028;-79
2023/09/19 03:59:59;;;;;;;0.70;0.52;;;;;;;13.18;100.00;92903.94;2115298;28;20348;-79
2023/09/19 04:01:00;;;;;;;0.95;0.52;;;;;;;13.21;100.00;92903.06;2115384;28;20019;-79
2023/09/19 04:02:02;;;;;;;1.38;0.50;;;;;;;13.20;100.00;92907.66;2115483;27;20031;-80
2023/09/19 04:03:06;;;;;;;2.13;0.40;;;;;;;13.33;100.00;92904.97;2115140;28;20114;-79
2023/09/19 04:04:11;;;;;;;0.75;0.47;;;;;;;13.25;100.00;92904.44;2098789;28;20028;-79
2023/09/19 04:05:12;;;;;;;1.48;0.60;;;;;;;13.17;100.00;92905.09;2099608;28;20021;-79
2023/09/19 04:06:17;;;;;;;0.98;0.50;;;;;;;13.19;100.00;92902.75;2106733;28;20044;-79
2023/09/19 04:07:22;;;;;;;0.45;0.45;;;;;;;13.25;100.00;92904.44;2099015;28;20025;-79
2023/09/19 04:08:23;;;;;;;0.68;0.50;;;;;;;13.13;100.00;92907.19;2099314;28;20109;-79
2023/09/19 04:09:24;;;;;;;1.33;0.63;;;;;;;13.22;100.00;92901.88;2115302;28;20457;-79
2023/09/19 04:10:25;;;;;;;1.20;0.40;;;;;;;13.21;100.00;92909.16;2115218;28;20058;-79
2023/09/19 04:11:26;;;;;;;1.50;0.57;;;;;;;13.20;100.00;92899.63;2115278;28;20468;-78
2023/09/19 04:12:27;;;;;;;0.40;0.40;;;;;;;13.25;100.00;92901.03;2106817;28;20020;-78
2023/09/19 04:13:28;;;;;;;0.50;0.50;;;;;;;13.28;100.00;92905.53;2106841;28;20024;-79
2023/09/19 04:14:29;;;;;;;1.55;0.60;;;;;;;13.17;100.00;92911.25;2115827;27;20090;-79
2023/09/19 04:15:30;;;;;;;0.70;0.50;;;;;;;13.17;100.00;92913.16;2115010;28;20023;-79
2023/09/19 04:16:31;;;;;;;0.68;0.50;;;;;;;13.04;100.00;92910.56;2098256;28;20083;-79
2023/09/19 04:17:35;;;;;;;0.60;0.60;;;;;;;13.07;100.00;92912.34;2108387;28;20059;-79
2023/09/19 04:18:38;;;;;;;0.70;0.55;;;;;;;13.05;100.00;92918.16;2114981;28;20110;-79
2023/09/19 04:19:40;;;;;;;1.45;0.60;;;;;;;13.05;100.00;92918.16;2115091;28;20475;-81
2023/09/19 04:20:41;;;;;;;1.00;0.40;;;;;;;13.07;100.00;92912.34;2115706;28;20533;-79
2023/09/19 04:21:42;;;;;;;0.50;0.50;;;;;;;12.95;100.00;92911.25;2115058;28;20055;-79
2023/09/19 04:22:43;;;;;;;0.82;0.60;;;;;;;12.93;100.00;92912.84;2106352;28;20044;-79
2023/09/19 04:23:44;;;;;;;0.68;0.50;;;;;;;12.89;100.00;92912.22;2115295;28;20088;-79
2023/09/19 04:24:45;;;;;;;1.90;0.50;;;;;;;12.93;100.00;92910.16;2115759;28;20023;-79
2023/09/19 04:25:46;;;;;;;0.40;0.40;;;;;;;12.93;100.00;92912.84;2115136;28;20047;-79
2023/09/19 04:26:48;;;;;;;4.43;0.70;;;;;;;12.85;100.00;92915.75;2106843;28;20036;-79
2023/09/19 04:27:49;;;;;;;1.23;0.35;;;;;;;12.87;100.00;92912.66;2106701;28;20028;-79
2023/09/19 04:28:51;;;;;;;0.60;0.30;;;;;;;12.87;100.00;92911.91;2098224;28;20020;-79
2023/09/19 04:29:53;;;;;;;0.65;0.50;;;;;;;12.93;100.00;92916.28;2098436;28;20024;-79
2023/09/19 04:30:55;;;;;;;1.15;0.60;;;;;;;12.97;100.00;92919.59;2115204;28;20443;-79
2023/09/19 04:31:59;;;;;;;0.82;0.50;;;;;;;13.24;100.00;92912.94;2114950;28;20446;-79
2023/09/19 04:33:01;;;;;;;0.38;0.38;;;;;;;13.24;100.00;92908.31;2115198;28;20016;-79
2023/09/19 04:34:03;;;;;;;3.13;0.60;;;;;;;13.22;100.00;92920.69;2114921;28;20416;-78
2023/09/19 04:35:06;;;;;;;0.88;0.57;;;;;;;13.04;100.00;92914.00;2115092;28;20062;-78
2023/09/19 04:36:07;;;;;;;0.47;0.40;;;;;;;13.02;100.00;92912.91;2115158;28;20102;-79
2023/09/19 04:37:08;;;;;;;1.13;0.60;;;;;;;12.91;100.00;92915.97;2115184;28;20023;-80
2023/09/19 04:38:09;;;;;;;0.50;0.50;;;;;;;12.90;100.00;92911.03;2115665;28;20384;-79
2023/09/19 04:39:12;;;;;;;0.60;0.47;;;;;;;12.90;100.00;92903.72;2114991;28;20499;-79
2023/09/19 04:40:17;;;;;;;0.60;0.55;;;;;;;12.96;100.00;92912.72;2106747;28;20330;-79
2023/09/19 04:41:18;;;;;;;0.30;0.30;;;;;;;13.05;100.00;92912.06;2115068;28;20082;-79
2023/09/19 04:42:19;;;;;;;0.40;0.40;;;;;;;13.04;100.00;92921.28;2114911;28;20522;-79
2023/09/19 04:43:20;;;;;;;0.88;0.55;;;;;;;13.07;100.00;92909.66;2098204;28;20052;-79
2023/09/19 04:44:21;;;;;;;1.25;0.40;;;;;;;12.86;100.00;92916.50;2106874;28;20077;-79
2023/09/19 04:45:23;;;;;;;0.50;0.50;;;;;;;12.91;100.00;92915.97;2115465;28;20421;-79
2023/09/19 04:46:24;;;;;;;4.32;0.50;;;;;;;12.76;100.00;92913.00;2114793;28;20038;-79
2023/09/19 04:47:25;;;;;;;0.85;0.40;;;;;;;12.84;100.00;92911.59;2106426;28;20113;-79
2023/09/19 04:48:26;;;;;;;1.02;0.40;;;;;;;12.90;100.00;92902.97;2098414;28;20025;-79
2023/09/19 04:49:26;;;;;;;0.40;0.40;;;;;;;12.88;100.00;92908.78;2098412;28;20016;-79
2023/09/19 04:50:28;;;;;;;0.30;0.30;;;;;;;12.84;100.00;92900.84;2098222;28;20028;-79
2023/09/19 04:51:29;;;;;;;0.47;0.40;;;;;;;12.84;100.00;92908.16;2114872;28;20561;-79
2023/09/19 04:52:31;;;;;;;0.82;0.60;;;;;;;12.78;100.00;92917.94;2114866;28;20027;-79
2023/09/19 04:53:32;;;;;;;0.50;0.50;;;;;;;12.85;100.00;92913.06;2098411;28;20409;-79
2023/09/19 04:54:36;;;;;;;0.45;0.45;;;;;;;12.99;100.00;92917.19;2090035;28;20021;-79
2023/09/19 04:55:37;;;;;;;0.82;0.63;;;;;;;13.01;100.00;92917.53;2099096;28;20028;-79
2023/09/19 04:56:40;;;;;;;2.38;0.70;;;;;;;13.04;100.00;92913.25;2106679;28;20393;-79
2023/09/19 04:57:41;;;;;;;0.43;0.43;;;;;;;12.97;100.00;92916.16;2114967;28;20518;-79
2023/09/19 04:58:42;;;;;;;0.50;0.40;;;;;;;12.93;100.00;92916.28;2115514;28;20030;-79
2023/09/19 04:59:43;;;;;;;0.40;0.40;;;;;;;12.90;100.00;92911.78;2115470;28;20050;-79
2023/09/19 05:00:44;;;;;;;0.60;0.43;;;;;;;12.84;100.00;92918.88;2119994;27;20092;-79
2023/09/19 05:01:46;;;;;;;0.77;0.40;;;;;;;12.92;100.00;92917.47;2123134;27;20472;-79
2023/09/19 05:02:50;;;;;;;0.77;0.40;;;;;;;12.87;100.00;92928.75;2115482;28;20034;-79
2023/09/19 05:03:52;;;;;;;2.63;0.40;;;;;;;12.88;100.00;92924.88;2115617;28;20106;-79
2023/09/19 05:04:53;;;;;;;1.95;0.50;;;;;;;12.95;100.00;92930.00;2115550;28;20025;-79
2023/09/19 05:05:54;;;;;;;0.40;0.40;;;;;;;12.97;100.00;92930.31;2114857;28;20016;-79
2023/09/19 05:06:55;;;;;;;1.30;0.50;;;;;;;13.02;100.00;92937.06;2098297;28;20453;-79
2023/09/19 05:07:56;;;;;;;0.50;0.50;;;;;;;12.87;100.00;92938.75;2106589;28;20393;-79